Time;durP1;ratioP1;P1;durP2;ratioP2;P2;SDS_P1;SDS_P2;PMS_P1;PMS_P2;Temp;Humidity;BMP_temperature;BMP_pressure;BME280_temperature;BME280_humidity;BME280_pressure;Samples;Min_cycle;Max_cycle;Signal;HPM_P1;HPM_P2
2021/04/23 00:00:37;;;;;;;13.05;4.25;;;;;;;;;;5095075;28;20214;-58
2021/04/23 00:03:07;;;;;;;14.40;4.13;;;;;;;;;;5059272;28;20262;-56
2021/04/23 00:05:34;;;;;;;16.52;4.65;;;;;;;;;;5076417;28;20213;-55
2021/04/23 00:08:02;;;;;;;11.95;4.47;;;;;;;;;;5076555;28;20199;-54
2021/04/23 00:10:44;;;;;;;8.05;4.53;;;;;;;;;;5076688;28;20182;-52
2021/04/23 00:13:11;;;;;;;12.38;5.85;;;;;;;;;;5076401;28;20313;-53
2021/04/23 00:15:38;;;;;;;12.45;4.72;;;;;;;;;;5076105;28;20239;-55
2021/04/23 00:18:06;;;;;;;11.40;4.43;;;;;;;;;;5076322;28;20210;-56
2021/04/23 00:20:33;;;;;;;17.05;4.63;;;;;;;;;;5075536;28;20191;-54
2021/04/23 00:23:03;;;;;;;10.25;5.30;;;;;;;;;;5076087;28;20280;-53
2021/04/23 00:25:30;;;;;;;11.30;4.20;;;;;;;;;;5076165;28;20206;-54
2021/04/23 00:27:57;;;;;;;8.10;3.92;;;;;;;;;;5076260;28;20221;-61
2021/04/23 00:30:44;;;;;;;12.30;4.40;;;;;;;;;;5075687;28;20210;-55
2021/04/23 00:33:12;;;;;;;17.60;4.53;;;;;;;;;;5075842;28;20210;-57
2021/04/23 00:35:40;;;;;;;11.57;3.97;;;;;;;;;;5075547;28;20214;-54
2021/04/23 00:38:12;;;;;;;12.80;4.13;;;;;;;;;;5076246;28;20191;-56
2021/04/23 00:40:41;;;;;;;13.88;4.78;;;;;;;;;;5075741;28;20428;-52
2021/04/23 00:43:09;;;;;;;12.27;4.10;;;;;;;;;;5075891;28;20218;-54
2021/04/23 00:45:44;;;;;;;11.05;3.92;;;;;;;;;;5076394;28;20206;-52
2021/04/23 00:48:12;;;;;;;9.05;4.30;;;;;;;;;;5075331;28;20209;-52
2021/04/23 00:50:41;;;;;;;13.73;4.95;;;;;;;;;;5075592;28;20206;-51
2021/04/23 00:53:10;;;;;;;20.33;5.15;;;;;;;;;;5075938;28;20202;-49
2021/04/23 00:55:37;;;;;;;14.35;5.75;;;;;;;;;;5075524;28;20230;-53
2021/04/23 00:58:14;;;;;;;13.90;4.95;;;;;;;;;;5075117;28;20253;-54
2021/04/23 01:00:41;;;;;;;16.45;5.53;;;;;;;;;;5076058;28;20584;-59
2021/04/23 01:03:10;;;;;;;7.88;4.10;;;;;;;;;;5076355;28;20202;-56
2021/04/23 01:05:41;;;;;;;8.65;4.15;;;;;;;;;;5078947;28;20210;-53
2021/04/23 01:08:07;;;;;;;8.70;5.30;;;;;;;;;;5095780;28;20224;-51
2021/04/23 01:10:34;;;;;;;13.77;4.50;;;;;;;;;;5095927;28;20292;-54
2021/04/23 01:13:10;;;;;;;7.10;3.70;;;;;;;;;;5095892;28;20193;-59
2021/04/23 01:15:37;;;;;;;10.10;4.63;;;;;;;;;;5096068;28;20221;-58
2021/04/23 01:18:04;;;;;;;13.75;5.38;;;;;;;;;;5095472;28;20213;-52
2021/04/23 01:20:45;;;;;;;11.88;4.85;;;;;;;;;;5095679;28;20209;-54
2021/04/23 01:23:12;;;;;;;13.55;4.95;;;;;;;;;;5095396;28;20190;-53
2021/04/23 01:25:39;;;;;;;14.15;5.53;;;;;;;;;;5095448;28;20175;-54
2021/04/23 01:28:17;;;;;;;17.17;4.60;;;;;;;;;;5095880;28;20190;-57
2021/04/23 01:30:44;;;;;;;10.98;4.97;;;;;;;;;;5077520;28;20217;-51
2021/04/23 01:33:11;;;;;;;21.60;5.15;;;;;;;;;;5079589;28;20210;-52
2021/04/23 01:35:43;;;;;;;13.15;5.00;;;;;;;;;;5079537;28;20251;-52
2021/04/23 01:38:10;;;;;;;7.38;4.47;;;;;;;;;;5079620;28;20210;-55
2021/04/23 01:40:38;;;;;;;14.27;4.13;;;;;;;;;;5079569;28;20263;-55
2021/04/23 01:43:16;;;;;;;11.60;4.57;;;;;;;;;;5079376;28;20206;-56
2021/04/23 01:45:43;;;;;;;12.45;5.00;;;;;;;;;;5079825;28;20217;-55
2021/04/23 01:48:11;;;;;;;13.02;4.43;;;;;;;;;;5079841;28;20206;-57
2021/04/23 01:50:37;;;;;;;10.85;5.75;;;;;;;;;;5079679;28;20215;-51
2021/04/23 01:53:04;;;;;;;12.15;6.35;;;;;;;;;;5079769;28;20186;-46
2021/04/23 01:55:31;;;;;;;10.38;5.35;;;;;;;;;;5079078;28;20218;-58
2021/04/23 01:57:59;;;;;;;13.90;5.55;;;;;;;;;;5079085;28;20210;-58
2021/04/23 02:00:27;;;;;;;10.02;4.63;;;;;;;;;;5078520;28;20226;-56
2021/04/23 02:03:01;;;;;;;12.55;5.82;;;;;;;;;;5096677;28;20217;-54
2021/04/23 02:05:36;;;;;;;14.60;4.95;;;;;;;;;;5099104;28;20240;-51
2021/04/23 02:08:07;;;;;;;12.85;5.25;;;;;;;;;;5095004;28;20208;-59
2021/04/23 02:10:36;;;;;;;9.93;4.65;;;;;;;;;;5097169;28;20228;-51
2021/04/23 02:13:05;;;;;;;12.70;6.63;;;;;;;;;;5090927;28;20198;-52
2021/04/23 02:15:32;;;;;;;12.45;6.22;;;;;;;;;;5078861;28;20226;-53
2021/04/23 02:18:01;;;;;;;10.93;5.70;;;;;;;;;;5078501;28;20210;-50
2021/04/23 02:20:29;;;;;;;15.98;5.75;;;;;;;;;;5078236;28;20229;-54
2021/04/23 02:22:57;;;;;;;21.38;6.00;;;;;;;;;;5078507;28;20199;-57
2021/04/23 02:25:24;;;;;;;11.75;5.03;;;;;;;;;;5078956;28;20183;-58
2021/04/23 02:27:51;;;;;;;9.77;5.00;;;;;;;;;;5078605;28;20206;-53
2021/04/23 02:30:29;;;;;;;11.70;4.97;;;;;;;;;;5077800;28;20210;-54
2021/04/23 02:32:57;;;;;;;22.67;6.03;;;;;;;;;;5078073;28;20214;-55
2021/04/23 02:35:24;;;;;;;16.83;5.25;;;;;;;;;;5078623;28;20207;-56
2021/04/23 02:38:13;;;;;;;11.07;5.13;;;;;;;;;;5078470;28;20302;-54
2021/04/23 02:40:40;;;;;;;12.95;4.88;;;;;;;;;;5078249;28;20213;-53
2021/04/23 02:43:09;;;;;;;7.90;5.30;;;;;;;;;;5077490;28;20214;-54
2021/04/23 02:48:42;;;;;;;8.23;4.90;;;;;;;;;;5078535;28;20241;-54
2021/04/23 02:51:10;;;;;;;12.57;6.20;;;;;;;;;;5078235;28;20234;-55
2021/04/23 02:53:37;;;;;;;14.05;5.35;;;;;;;;;;5078038;28;20206;-53
2021/04/23 02:56:05;;;;;;;16.52;5.82;;;;;;;;;;5078044;28;20253;-53
2021/04/23 02:58:32;;;;;;;10.65;4.80;;;;;;;;;;5078401;28;20194;-56
2021/04/23 03:01:06;;;;;;;13.02;5.30;;;;;;;;;;5077564;28;20238;-53
2021/04/23 03:03:33;;;;;;;12.40;6.15;;;;;;;;;;5077742;28;20260;-49
2021/04/23 03:06:01;;;;;;;17.50;5.55;;;;;;;;;;5078254;28;20245;-53
2021/04/23 03:08:29;;;;;;;12.48;5.38;;;;;;;;;;5077669;28;20198;-54
2021/04/23 03:10:57;;;;;;;10.93;4.85;;;;;;;;;;5078032;28;20206;-59
2021/04/23 03:13:54;;;;;;;10.05;5.20;;;;;;;;;;5077901;28;20199;-53
2021/04/23 03:16:21;;;;;;;13.40;5.63;;;;;;;;;;5077752;28;20426;-54
2021/04/23 03:18:49;;;;;;;14.60;5.75;;;;;;;;;;5097330;28;20193;-58
2021/04/23 03:21:21;;;;;;;18.85;6.00;;;;;;;;;;5097407;28;20217;-54
2021/04/23 03:23:53;;;;;;;11.75;6.10;;;;;;;;;;5097695;28;20205;-56
2021/04/23 03:26:21;;;;;;;9.65;5.90;;;;;;;;;;5096791;28;20194;-53
2021/04/23 03:29:09;;;;;;;13.52;5.30;;;;;;;;;;5078676;28;20206;-56
2021/04/23 03:31:38;;;;;;;13.05;5.60;;;;;;;;;;5077806;28;20221;-56
2021/04/23 03:34:05;;;;;;;11.05;5.75;;;;;;;;;;5076866;28;20244;-55
2021/04/23 03:36:35;;;;;;;9.25;5.55;;;;;;;;;;5076914;28;20230;-54
2021/04/23 03:39:05;;;;;;;14.65;6.50;;;;;;;;;;5076930;28;20210;-55
2021/04/23 03:41:33;;;;;;;16.90;5.80;;;;;;;;;;5076654;28;20214;-54
2021/04/23 03:44:18;;;;;;;15.90;6.22;;;;;;;;;;5089207;28;20212;-55
2021/04/23 03:46:45;;;;;;;13.18;6.85;;;;;;;;;;5096371;28;20236;-57
2021/04/23 03:49:14;;;;;;;14.73;6.93;;;;;;;;;;5096452;28;20218;-53
2021/04/23 03:54:45;;;;;;;14.27;7.15;;;;;;;;;;5095414;28;20181;-50
2021/04/23 03:57:12;;;;;;;10.48;6.63;;;;;;;;;;5096385;28;20238;-48
2021/04/23 03:59:39;;;;;;;11.27;7.43;;;;;;;;;;5096638;28;20246;-53
2021/04/23 04:02:07;;;;;;;10.82;7.18;;;;;;;;;;5089519;28;20210;-53
2021/04/23 04:04:34;;;;;;;16.48;7.10;;;;;;;;;;5076578;28;20210;-51
2021/04/23 04:07:01;;;;;;;14.35;6.90;;;;;;;;;;5085573;28;20186;-54
2021/04/23 04:09:38;;;;;;;16.75;7.28;;;;;;;;;;5087924;28;20228;-53
2021/04/23 04:12:06;;;;;;;16.80;6.97;;;;;;;;;;5094203;28;20231;-51
2021/04/23 04:14:33;;;;;;;18.20;6.25;;;;;;;;;;5084925;28;20210;-55
2021/04/23 04:17:00;;;;;;;10.13;5.93;;;;;;;;;;5096057;28;20283;-56
2021/04/23 04:19:27;;;;;;;17.48;7.45;;;;;;;;;;5092467;28;20206;-56
2021/04/23 04:21:53;;;;;;;13.60;7.80;;;;;;;;;;5096113;28;20201;-53
2021/04/23 04:24:29;;;;;;;16.58;6.60;;;;;;;;;;5096368;28;20194;-57
2021/04/23 04:26:56;;;;;;;21.80;9.82;;;;;;;;;;5084076;28;20256;-53
2021/04/23 04:29:30;;;;;;;14.32;7.85;;;;;;;;;;5076165;28;20195;-55
2021/04/23 04:31:57;;;;;;;15.02;6.35;;;;;;;;;;5088919;28;20209;-50
2021/04/23 04:34:26;;;;;;;22.20;8.40;;;;;;;;;;5086676;28;20270;-56
2021/04/23 04:36:59;;;;;;;10.77;6.43;;;;;;;;;;5075861;28;20218;-58
2021/04/23 04:39:28;;;;;;;15.05;6.90;;;;;;;;;;5075345;28;20211;-52
2021/04/23 04:41:55;;;;;;;16.45;6.50;;;;;;;;;;5075433;28;20206;-57
2021/04/23 04:44:39;;;;;;;19.42;7.35;;;;;;;;;;5076302;28;20222;-56
2021/04/23 04:47:06;;;;;;;20.80;8.30;;;;;;;;;;5075903;28;20213;-56
2021/04/23 04:49:33;;;;;;;14.13;6.43;;;;;;;;;;5075110;28;20556;-57
2021/04/23 04:52:02;;;;;;;12.57;6.50;;;;;;;;;;5075756;28;20221;-51
2021/04/23 04:54:31;;;;;;;16.27;8.95;;;;;;;;;;5075356;28;20187;-56
2021/04/23 04:56:59;;;;;;;15.32;6.93;;;;;;;;;;5075153;28;20214;-53
2021/04/23 04:59:59;;;;;;;15.52;8.82;;;;;;;;;;5075486;28;20205;-55
2021/04/23 05:02:33;;;;;;;9.82;5.80;;;;;;;;;;5087886;28;20194;-53
2021/04/23 05:05:02;;;;;;;12.43;6.68;;;;;;;;;;5096167;28;20286;-53
2021/04/23 05:07:44;;;;;;;15.05;7.22;;;;;;;;;;5083057;28;20215;-59
2021/04/23 05:10:12;;;;;;;18.42;7.18;;;;;;;;;;5085760;28;20237;-58
2021/04/23 05:12:39;;;;;;;13.50;6.50;;;;;;;;;;5085439;28;20217;-53
2021/04/23 05:15:11;;;;;;;12.90;6.80;;;;;;;;;;5091356;28;20220;-53
2021/04/23 05:17:39;;;;;;;13.30;5.97;;;;;;;;;;5096269;28;20238;-57
2021/04/23 05:20:08;;;;;;;12.70;5.93;;;;;;;;;;5086624;28;20206;-53
2021/04/23 05:22:44;;;;;;;13.98;6.32;;;;;;;;;;5083769;28;20262;-55
2021/04/23 05:25:14;;;;;;;11.60;6.35;;;;;;;;;;5088772;28;20189;-59
2021/04/23 05:27:41;;;;;;;13.60;6.63;;;;;;;;;;5083463;28;20230;-55
2021/04/23 05:30:17;;;;;;;13.70;6.38;;;;;;;;;;5090447;28;20205;-55
2021/04/23 05:32:45;;;;;;;17.27;6.80;;;;;;;;;;5080027;28;20232;-57
2021/04/23 05:35:13;;;;;;;18.33;9.00;;;;;;;;;;5089401;28;20202;-54
2021/04/23 05:37:41;;;;;;;16.52;7.78;;;;;;;;;;5092983;28;20222;-56
2021/04/23 05:40:12;;;;;;;18.73;9.43;;;;;;;;;;5095511;28;20202;-58
2021/04/23 05:42:41;;;;;;;15.95;8.98;;;;;;;;;;5094845;28;20197;-58
2021/04/23 05:45:37;;;;;;;20.05;9.45;;;;;;;;;;5095246;28;20232;-59
2021/04/23 05:48:08;;;;;;;20.67;9.75;;;;;;;;;;5085696;28;20203;-58
2021/04/23 05:50:36;;;;;;;14.27;8.68;;;;;;;;;;5074276;28;20218;-58
2021/04/23 05:53:06;;;;;;;21.55;9.13;;;;;;;;;;5075053;28;20370;-61
2021/04/23 05:55:40;;;;;;;15.77;7.72;;;;;;;;;;5085962;28;20382;-57
2021/04/23 05:58:09;;;;;;;20.45;8.25;;;;;;;;;;5074880;28;20203;-51
2021/04/23 06:00:42;;;;;;;21.95;8.45;;;;;;;;;;5074415;28;20637;-53
2021/04/23 06:03:11;;;;;;;19.05;8.35;;;;;;;;;;5074426;28;20202;-53
2021/04/23 06:05:38;;;;;;;14.18;7.68;;;;;;;;;;5087513;28;20194;-60
2021/04/23 06:08:18;;;;;;;21.40;7.97;;;;;;;;;;5094333;28;20206;-56
2021/04/23 06:10:46;;;;;;;14.23;6.82;;;;;;;;;;5094170;28;20237;-52
2021/04/23 06:13:13;;;;;;;16.38;8.18;;;;;;;;;;5094569;28;20198;-52
2021/04/23 06:15:41;;;;;;;23.30;7.25;;;;;;;;;;5094375;28;20206;-58
2021/04/23 06:18:10;;;;;;;16.02;8.20;;;;;;;;;;5096133;28;20232;-57
2021/04/23 06:20:38;;;;;;;19.00;8.70;;;;;;;;;;5096065;28;20194;-56
2021/04/23 06:23:14;;;;;;;18.77;8.55;;;;;;;;;;5097463;28;20209;-56
2021/04/23 06:25:41;;;;;;;15.38;8.85;;;;;;;;;;5096735;28;20286;-59
2021/04/23 06:28:10;;;;;;;17.08;7.80;;;;;;;;;;5089404;28;20198;-57
2021/04/23 06:33:43;;;;;;;19.08;8.68;;;;;;;;;;5080088;28;20225;-53
2021/04/23 06:36:11;;;;;;;25.30;9.93;;;;;;;;;;5085812;28;20218;-55
2021/04/23 06:38:38;;;;;;;15.75;9.25;;;;;;;;;;5077536;28;20191;-53
2021/04/23 06:41:06;;;;;;;15.88;7.60;;;;;;;;;;5076095;28;20526;-56
2021/04/23 06:43:33;;;;;;;23.85;8.00;;;;;;;;;;5076561;28;20207;-53
2021/04/23 06:46:09;;;;;;;16.40;7.30;;;;;;;;;;5080701;28;20262;-60
2021/04/23 06:48:37;;;;;;;15.50;8.80;;;;;;;;;;5077216;28;20202;-58
2021/04/23 06:51:09;;;;;;;15.60;7.67;;;;;;;;;;5082521;28;20258;-60
2021/04/23 06:53:53;;;;;;;13.73;7.18;;;;;;;;;;5077549;28;20461;-60
2021/04/23 06:56:20;;;;;;;16.10;7.50;;;;;;;;;;5085493;28;20232;-61
2021/04/23 06:58:51;;;;;;;14.20;7.30;;;;;;;;;;5095551;28;20213;-59
2021/04/23 07:01:25;;;;;;;22.20;7.82;;;;;;;;;;5092326;28;20586;-57
2021/04/23 07:03:53;;;;;;;12.95;7.93;;;;;;;;;;5075363;28;20202;-60
2021/04/23 07:06:20;;;;;;;15.30;7.45;;;;;;;;;;5075508;28;20203;-56
2021/04/23 07:09:05;;;;;;;13.07;7.20;;;;;;;;;;5076551;28;20233;-57
2021/04/23 07:11:32;;;;;;;14.57;6.47;;;;;;;;;;5090074;28;20480;-52
2021/04/23 07:13:59;;;;;;;12.40;6.80;;;;;;;;;;5096193;28;20460;-52
2021/04/23 07:16:50;;;;;;;12.00;7.10;;;;;;;;;;5097308;28;20233;-59
2021/04/23 07:19:17;;;;;;;11.52;7.57;;;;;;;;;;5094857;28;20468;-60
2021/04/23 07:21:48;;;;;;;9.90;6.13;;;;;;;;;;5097818;28;20251;-59
2021/04/23 07:24:34;;;;;;;15.30;7.07;;;;;;;;;;5096515;28;20233;-56
2021/04/23 07:27:01;;;;;;;16.13;7.33;;;;;;;;;;5095803;28;20448;-59
2021/04/23 07:29:33;;;;;;;11.67;6.20;;;;;;;;;;5086301;28;20440;-59
2021/04/23 07:32:21;;;;;;;14.83;6.50;;;;;;;;;;5096108;28;20497;-57
2021/04/23 07:34:48;;;;;;;20.03;7.00;;;;;;;;;;5096247;28;20437;-59
2021/04/23 07:37:15;;;;;;;13.47;6.57;;;;;;;;;;5096076;28;20480;-58
2021/04/23 07:40:02;;;;;;;22.90;6.50;;;;;;;;;;5096796;28;20451;-53
2021/04/23 07:42:31;;;;;;;9.90;5.53;;;;;;;;;;5094239;28;20491;-57
2021/04/23 07:45:00;;;;;;;12.97;5.63;;;;;;;;;;5095244;28;20447;-60
2021/04/23 07:47:43;;;;;;;15.80;5.93;;;;;;;;;;5094784;28;20468;-61
2021/04/23 07:50:11;;;;;;;13.60;5.87;;;;;;;;;;5094967;28;20463;-58
2021/04/23 07:52:44;;;;;;;11.25;5.97;;;;;;;;;;5095145;28;20451;-57
2021/04/23 07:55:13;;;;;;;17.80;6.20;;;;;;;;;;5093152;28;20209;-54
2021/04/23 07:57:41;;;;;;;16.57;6.30;;;;;;;;;;5094466;28;20496;-53
2021/04/23 08:00:09;;;;;;;10.38;5.38;;;;;;;;;;5095343;28;20467;-56
2021/04/23 08:02:52;;;;;;;10.30;5.50;;;;;;;;;;5095137;28;20217;-53
2021/04/23 08:05:19;;;;;;;9.80;4.60;;;;;;;;;;5080096;28;20472;-58
2021/04/23 08:07:46;;;;;;;13.07;6.00;;;;;;;;;;5093817;28;20186;-57
2021/04/23 08:13:18;;;;;;;20.27;6.97;;;;;;;;;;5074722;28;20193;-54
2021/04/23 08:15:45;;;;;;;11.77;6.07;;;;;;;;;;5075241;28;20237;-56
2021/04/23 08:18:27;;;;;;;9.10;4.80;;;;;;;;;;5075519;28;20203;-59
2021/04/23 08:20:53;;;;;;;9.27;5.13;;;;;;;;;;5077483;28;20465;-58
2021/04/23 08:23:21;;;;;;;12.70;5.60;;;;;;;;;;5075691;28;20445;-59
2021/04/23 08:25:52;;;;;;;13.97;6.83;;;;;;;;;;5075779;28;20174;-55
2021/04/23 08:28:20;;;;;;;11.13;5.20;;;;;;;;;;5073948;28;20422;-57
2021/04/23 08:30:46;;;;;;;10.63;5.83;;;;;;;;;;5073408;28;20449;-56
2021/04/23 08:33:45;;;;;;;14.23;6.50;;;;;;;;;;5074872;28;20457;-56
2021/04/23 08:36:12;;;;;;;13.45;6.90;;;;;;;;;;5074205;28;20282;-55
2021/04/23 08:38:38;;;;;;;12.80;6.45;;;;;;;;;;5075997;28;20236;-56
2021/04/23 08:41:08;;;;;;;16.93;7.33;;;;;;;;;;5072962;28;20199;-53
2021/04/23 08:43:36;;;;;;;8.75;5.65;;;;;;;;;;5074184;28;20467;-60
2021/04/23 08:46:04;;;;;;;15.15;7.20;;;;;;;;;;5074090;28;20202;-50
2021/04/23 08:48:31;;;;;;;13.10;6.22;;;;;;;;;;5074667;28;20207;-55
2021/04/23 08:50:58;;;;;;;14.80;6.50;;;;;;;;;;5079270;28;20195;-48
2021/04/23 08:53:27;;;;;;;10.87;5.93;;;;;;;;;;5076798;28;20476;-53
2021/04/23 08:55:58;;;;;;;13.90;7.53;;;;;;;;;;5093146;28;21053;-56
2021/04/23 08:58:33;;;;;;;11.13;5.85;;;;;;;;;;5091081;28;20506;-54
2021/04/23 09:01:01;;;;;;;7.27;4.00;;;;;;;;;;5089562;28;20194;-60
2021/04/23 09:03:29;;;;;;;8.67;5.07;;;;;;;;;;5073896;28;20453;-59
2021/04/23 09:06:09;;;;;;;15.00;6.27;;;;;;;;;;5074301;28;20483;-54
2021/04/23 09:08:37;;;;;;;11.80;5.77;;;;;;;;;;5081987;28;20479;-56
2021/04/23 09:11:15;;;;;;;12.73;5.77;;;;;;;;;;5077917;28;20459;-57
2021/04/23 09:13:51;;;;;;;10.03;5.00;;;;;;;;;;5074437;28;20453;-57
2021/04/23 09:16:19;;;;;;;10.90;5.57;;;;;;;;;;5073369;28;20489;-58
2021/04/23 09:18:45;;;;;;;10.43;5.57;;;;;;;;;;5073482;28;20464;-55
2021/04/23 09:21:14;;;;;;;13.70;5.70;;;;;;;;;;5074494;28;20483;-54
2021/04/23 09:26:48;;;;;;;9.87;5.17;;;;;;;;;;5087597;28;20459;-57
2021/04/23 09:29:24;;;;;;;6.10;3.80;;;;;;;;;;5088383;28;20497;-55
2021/04/23 09:32:22;;;;;;;13.53;4.03;;;;;;;;;;5074205;28;20465;-58
2021/04/23 09:34:52;;;;;;;8.67;4.13;;;;;;;;;;5088651;28;20484;-60
2021/04/23 09:37:20;;;;;;;12.43;4.87;;;;;;;;;;5087544;28;20489;-53
2021/04/23 09:39:51;;;;;;;15.77;5.73;;;;;;;;;;5077620;28;20756;-51
2021/04/23 09:42:19;;;;;;;11.07;5.07;;;;;;;;;;5073338;28;20491;-56
2021/04/23 09:44:46;;;;;;;12.40;4.37;;;;;;;;;;5074018;28;20454;-54
2021/04/23 09:47:24;;;;;;;13.30;5.07;;;;;;;;;;5089963;28;20489;-62
2021/04/23 09:49:54;;;;;;;12.40;4.70;;;;;;;;;;5079519;28;20441;-57
2021/04/23 09:52:23;;;;;;;16.27;7.70;;;;;;;;;;5079220;28;20475;-55
2021/04/23 09:54:51;;;;;;;22.07;5.80;;;;;;;;;;5096877;28;20443;-61
2021/04/23 09:57:30;;;;;;;13.10;5.67;;;;;;;;;;5097036;28;20704;-58
2021/04/23 10:00:26;;;;;;;9.87;5.40;;;;;;;;;;5097583;28;20428;-54
2021/04/23 10:02:55;;;;;;;20.37;5.53;;;;;;;;;;5096215;28;20528;-59
2021/04/23 10:05:33;;;;;;;10.53;4.13;;;;;;;;;;5097173;28;20459;-57
2021/04/23 10:08:03;;;;;;;10.00;3.47;;;;;;;;;;5086630;28;20472;-60
2021/04/23 10:10:30;;;;;;;9.33;4.67;;;;;;;;;;5091233;28;20480;-61
2021/04/23 10:13:16;;;;;;;11.70;4.73;;;;;;;;;;5076376;28;20465;-56
2021/04/23 10:15:44;;;;;;;12.67;5.20;;;;;;;;;;5090561;28;20587;-56
2021/04/23 10:18:12;;;;;;;10.23;4.73;;;;;;;;;;5097244;28;20483;-58
2021/04/23 10:20:48;;;;;;;13.80;8.50;;;;;;;;;;5097532;28;20455;-57
2021/04/23 10:23:19;;;;;;;9.67;5.20;;;;;;;;;;5090288;28;20459;-56
2021/04/23 10:25:46;;;;;;;7.93;4.57;;;;;;;;;;5084431;28;20441;-53
2021/04/23 10:28:17;;;;;;;11.20;4.77;;;;;;;;;;5093296;28;20513;-55
2021/04/23 10:30:45;;;;;;;10.70;4.43;;;;;;;;;;5087980;28;20449;-56
2021/04/23 10:33:32;;;;;;;14.23;5.23;;;;;;;;;;5095648;28;20486;-59
2021/04/23 10:36:00;;;;;;;11.10;4.10;;;;;;;;;;5087781;28;20447;-58
2021/04/23 10:38:31;;;;;;;16.37;5.53;;;;;;;;;;5096387;28;20456;-51
2021/04/23 10:41:06;;;;;;;10.63;4.83;;;;;;;;;;5095804;28;20596;-58
2021/04/23 10:43:35;;;;;;;15.30;5.87;;;;;;;;;;5096588;28;20444;-53
2021/04/23 10:46:08;;;;;;;9.70;4.97;;;;;;;;;;5088919;28;20464;-61
2021/04/23 10:48:38;;;;;;;12.27;5.20;;;;;;;;;;5076514;28;20433;-59
2021/04/23 10:51:09;;;;;;;8.57;4.60;;;;;;;;;;5076440;28;20449;-57
2021/04/23 10:53:44;;;;;;;8.33;4.87;;;;;;;;;;5076149;28;20447;-58
2021/04/23 10:56:49;;;;;;;8.87;4.83;;;;;;;;;;5091026;28;20447;-57
2021/04/23 10:59:32;;;;;;;10.53;4.87;;;;;;;;;;5085635;28;21094;-57
2021/04/23 11:02:13;;;;;;;12.47;4.83;;;;;;;;;;5095245;28;20463;-57
2021/04/23 11:04:54;;;;;;;12.27;5.30;;;;;;;;;;5088274;28;20441;-57
2021/04/23 11:07:22;;;;;;;9.10;4.10;;;;;;;;;;5078804;28;20437;-57
2021/04/23 11:10:13;;;;;;;11.73;5.10;;;;;;;;;;5092191;28;20463;-56
2021/04/23 11:12:40;;;;;;;6.67;4.23;;;;;;;;;;5094541;28;20455;-52
2021/04/23 11:15:20;;;;;;;6.83;4.17;;;;;;;;;;5095086;28;20452;-57
2021/04/23 11:17:47;;;;;;;10.33;4.80;;;;;;;;;;5095268;28;20480;-57
2021/04/23 11:20:25;;;;;;;8.73;4.73;;;;;;;;;;5094027;28;20474;-51
2021/04/23 11:22:59;;;;;;;14.50;4.83;;;;;;;;;;5086281;28;20453;-54
2021/04/23 11:25:27;;;;;;;8.17;4.50;;;;;;;;;;5074296;28;20451;-60
2021/04/23 11:28:14;;;;;;;8.50;5.00;;;;;;;;;;5076677;28;20601;-57
2021/04/23 11:31:04;;;;;;;12.00;4.83;;;;;;;;;;5095874;28;20519;-52
2021/04/23 11:33:54;;;;;;;17.50;5.93;;;;;;;;;;5095220;28;20420;-53
2021/04/23 11:36:21;;;;;;;12.00;5.27;;;;;;;;;;5094819;28;20470;-54
2021/04/23 11:38:57;;;;;;;9.93;5.40;;;;;;;;;;5094164;28;20456;-48
2021/04/23 11:41:27;;;;;;;12.90;4.73;;;;;;;;;;5094968;28;20469;-55
2021/04/23 11:43:54;;;;;;;11.50;5.13;;;;;;;;;;5076685;28;20492;-61
2021/04/23 11:46:57;;;;;;;11.00;5.20;;;;;;;;;;5074145;28;20508;-53
2021/04/23 11:49:26;;;;;;;9.87;5.30;;;;;;;;;;5076064;28;20455;-60
2021/04/23 11:51:54;;;;;;;9.80;5.70;;;;;;;;;;5085109;28;20449;-59
2021/04/23 11:54:42;;;;;;;13.87;6.40;;;;;;;;;;5082055;28;20478;-56
2021/04/23 11:57:12;;;;;;;18.90;7.73;;;;;;;;;;5089212;28;20657;-59
2021/04/23 11:59:54;;;;;;;14.50;7.00;;;;;;;;;;5089990;28;20496;-57
2021/04/23 12:02:49;;;;;;;10.13;6.23;;;;;;;;;;5074590;28;20616;-58
2021/04/23 12:05:22;;;;;;;12.23;6.10;;;;;;;;;;5052395;28;20466;-61
2021/04/23 12:08:08;;;;;;;12.60;6.27;;;;;;;;;;5076251;28;20488;-54
2021/04/23 12:10:37;;;;;;;12.60;5.80;;;;;;;;;;5084525;28;20494;-55
2021/04/23 12:13:08;;;;;;;10.13;6.30;;;;;;;;;;5073415;28;20618;-54
2021/04/23 12:15:58;;;;;;;13.47;6.43;;;;;;;;;;5073040;28;20662;-58
2021/04/23 12:18:42;;;;;;;12.93;6.37;;;;;;;;;;5084477;28;20557;-55
2021/04/23 12:21:11;;;;;;;14.40;6.10;;;;;;;;;;5093317;28;20466;-54
2021/04/23 12:23:38;;;;;;;10.00;5.60;;;;;;;;;;5076769;28;20455;-60
2021/04/23 12:26:05;;;;;;;11.13;5.10;;;;;;;;;;5073563;28;20564;-53
2021/04/23 12:28:39;;;;;;;9.97;5.50;;;;;;;;;;5072850;28;20448;-57
2021/04/23 12:31:10;;;;;;;13.03;5.60;;;;;;;;;;5073252;28;20457;-57
2021/04/23 12:33:38;;;;;;;10.33;5.30;;;;;;;;;;5073090;28;20461;-56
2021/04/23 12:36:24;;;;;;;13.13;7.30;;;;;;;;;;5074859;28;20468;-55
2021/04/23 12:38:58;;;;;;;10.33;6.17;;;;;;;;;;5081974;28;20493;-58
2021/04/23 12:41:27;;;;;;;14.60;7.10;;;;;;;;;;5087487;28;20445;-57
2021/04/23 12:43:57;;;;;;;11.27;6.87;;;;;;;;;;5093884;28;20464;-57
2021/04/23 12:46:36;;;;;;;14.90;6.17;;;;;;;;;;5074818;28;20483;-49
2021/04/23 12:49:17;;;;;;;13.70;5.87;;;;;;;;;;5081919;28;20484;-57
2021/04/23 12:51:56;;;;;;;12.17;7.13;;;;;;;;;;5095100;28;20459;-54
2021/04/23 12:54:29;;;;;;;13.00;6.30;;;;;;;;;;5093058;28;20448;-55
2021/04/23 12:56:57;;;;;;;13.30;6.17;;;;;;;;;;5082892;28;20473;-57
2021/04/23 12:59:35;;;;;;;8.53;5.70;;;;;;;;;;5072525;28;20441;-58
2021/04/23 13:02:03;;;;;;;12.87;6.20;;;;;;;;;;5072457;28;20469;-58
2021/04/23 13:04:30;;;;;;;16.40;6.40;;;;;;;;;;5072292;28;20644;-60
2021/04/23 13:07:08;;;;;;;14.20;6.60;;;;;;;;;;5073184;28;20468;-58
2021/04/23 13:09:36;;;;;;;11.73;5.60;;;;;;;;;;5079938;28;20457;-58
2021/04/23 13:12:17;;;;;;;15.57;6.53;;;;;;;;;;5076984;28;20448;-57
2021/04/23 13:14:52;;;;;;;13.30;6.07;;;;;;;;;;5093667;28;20416;-59
2021/04/23 13:17:19;;;;;;;9.77;6.53;;;;;;;;;;5076589;28;20473;-51
2021/04/23 13:19:47;;;;;;;14.80;6.30;;;;;;;;;;5076123;28;20464;-58
2021/04/23 13:22:46;;;;;;;14.00;6.23;;;;;;;;;;5083024;28;20457;-55
2021/04/23 13:25:18;;;;;;;10.70;5.77;;;;;;;;;;5073234;28;20495;-51
2021/04/23 13:27:50;;;;;;;10.40;5.77;;;;;;;;;;5080076;28;20439;-57
2021/04/23 13:30:36;;;;;;;12.60;5.70;;;;;;;;;;5077879;28;20445;-56
2021/04/23 13:36:11;;;;;;;9.30;6.20;;;;;;;;;;5086176;28;20482;-53
2021/04/23 13:38:40;;;;;;;10.67;5.00;;;;;;;;;;5084946;28;20552;-57
2021/04/23 13:41:12;;;;;;;14.17;7.40;;;;;;;;;;5093865;28;20440;-58
2021/04/23 13:43:58;;;;;;;14.13;5.50;;;;;;;;;;5077224;28;20551;-59
2021/04/23 13:46:31;;;;;;;7.07;5.10;;;;;;;;;;5075898;28;20467;-59
2021/04/23 13:48:58;;;;;;;14.90;6.00;;;;;;;;;;5090579;28;20459;-56
2021/04/23 13:51:41;;;;;;;15.87;8.67;;;;;;;;;;5089660;28;20562;-60
2021/04/23 13:54:16;;;;;;;18.83;8.07;;;;;;;;;;5080347;28;20448;-57
2021/04/23 13:56:44;;;;;;;10.97;5.17;;;;;;;;;;5093559;28;20510;-59
2021/04/23 13:59:12;;;;;;;13.73;5.17;;;;;;;;;;5096936;28;20443;-54
2021/04/23 14:02:05;;;;;;;8.80;4.97;;;;;;;;;;5097763;28;20459;-53
2021/04/23 14:04:42;;;;;;;9.47;5.43;;;;;;;;;;5085771;28;20502;-55
2021/04/23 14:07:14;;;;;;;17.53;6.70;;;;;;;;;;5097118;28;20439;-56
2021/04/23 14:09:43;;;;;;;9.43;5.30;;;;;;;;;;5091737;28;20852;-58
2021/04/23 14:12:10;;;;;;;10.33;5.30;;;;;;;;;;5076398;28;20459;-55
2021/04/23 14:14:38;;;;;;;9.70;5.27;;;;;;;;;;5095856;28;20461;-57
2021/04/23 14:17:09;;;;;;;11.00;5.87;;;;;;;;;;5094654;28;20513;-59
2021/04/23 14:19:37;;;;;;;10.50;5.90;;;;;;;;;;5077006;28;20445;-57
2021/04/23 14:22:05;;;;;;;14.00;7.10;;;;;;;;;;5077206;28;20475;-57
2021/04/23 14:24:35;;;;;;;9.73;5.70;;;;;;;;;;5077262;28;20468;-55
2021/04/23 14:27:02;;;;;;;7.33;5.93;;;;;;;;;;5077138;28;20479;-55
2021/04/23 14:29:29;;;;;;;9.87;5.57;;;;;;;;;;5090895;28;20482;-60
2021/04/23 14:32:25;;;;;;;10.83;5.73;;;;;;;;;;5083344;28;20528;-56
2021/04/23 14:34:54;;;;;;;10.80;5.80;;;;;;;;;;5092332;28;20553;-60
2021/04/23 14:37:23;;;;;;;28.37;7.20;;;;;;;;;;5088785;28;20500;-61
2021/04/23 14:39:55;;;;;;;12.40;6.30;;;;;;;;;;5076067;28;20476;-58
2021/04/23 14:42:22;;;;;;;9.40;4.53;;;;;;;;;;5087241;28;20491;-53
2021/04/23 14:44:59;;;;;;;10.90;5.93;;;;;;;;;;5079826;28;20451;-54
2021/04/23 14:47:40;;;;;;;12.10;4.80;;;;;;;;;;5096006;28;20444;-60
2021/04/23 14:50:09;;;;;;;12.67;5.80;;;;;;;;;;5096804;28;20466;-57
2021/04/23 14:52:36;;;;;;;10.57;5.73;;;;;;;;;;5083847;28;20443;-58
2021/04/23 14:55:15;;;;;;;11.03;5.53;;;;;;;;;;5076660;28;20426;-59
2021/04/23 14:57:42;;;;;;;12.70;5.10;;;;;;;;;;5075842;28;20468;-59
2021/04/23 15:00:10;;;;;;;10.67;5.50;;;;;;;;;;5083711;28;20511;-56
2021/04/23 15:02:51;;;;;;;9.63;4.63;;;;;;;;;;5095742;28;20450;-54
2021/04/23 15:05:19;;;;;;;12.57;5.90;;;;;;;;;;5095749;28;20455;-58
2021/04/23 15:07:46;;;;;;;9.97;5.63;;;;;;;;;;5086888;28;20452;-58
2021/04/23 15:10:16;;;;;;;12.13;6.17;;;;;;;;;;5087401;28;20527;-56
2021/04/23 15:12:43;;;;;;;11.60;6.93;;;;;;;;;;5096037;28;20437;-60
2021/04/23 15:18:30;;;;;;;8.40;4.33;;;;;;;;;;5075685;28;20530;-53
2021/04/23 15:20:59;;;;;;;10.30;5.43;;;;;;;;;;5078580;28;20444;-58